LRCL/CLJ METAR and TAF weather

Enter ICAO airport designator
Station Type Date Time Source
LRCL METAR 2021/03/05 06:00 UTC NOAA

LRCL 050600Z VRB02KT 4500 BR NSC 00/M01 Q1013


Station Type Date Time Source
LRCL Decoded METAR 2021/03/05 06:00 UTC NOAA

Cluj-Napoca, Romania (LRCL) 46-47N 023-34E 413M
Mar 05, 2021 - 01:00 AM EST / 2021.03.05 0600 UTC
Wind: Variable at 2 MPH (2 KT):0
Visibility: 2 mile(s):0
Weather: mist
Temperature: 32 F (0 C)
Dew Point: 30 F (-1 C)
Relative Humidity: 92%
Pressure (altimeter): 29.91 in. Hg (1013 hPa)
ob: LRCL 050600Z VRB02KT 4500 BR NSC 00/M01 Q1013
cycle: 6

Station Type Date Time Source
LRCL TAF 2007/05/23 16:57 UTC NOAA

TAF
AMD LRCL 231657Z 231607 VRB02MPS 9999 SCT030 BKN080
TEMPO 1719 VRB15G20MPS 1500 TSRAGR SCT010 BKN020CB OVC080

Example: see airport list